Strool, South Dakota
Current Conditions -  °F | °C
As of 7:53 AM on Friday 28 Nov 2014 (Local Time) from KHEI Reporting Station
Few Clouds Few Clouds  
Wind Chill: 20°   Ceiling: Unl
Heat Index: 27°   Visibility: 10mi
Dew Point: 23°   Wind: 6mph
Humidity: 85%   Direction: 140°SE
Pressure: 29.65"   Gusts: NA
Location:  45.6029°N, 102.827°W
Report Text: KHEI 281453Z AUTO 14005KT 10SM FEW100 M03/M05 A2965 RMK AO2 SLP072 T10281050 56008
Loading
Personal Weather Stations






























Interactive Weather Map New forecast layout! Learn more

10-Day Weather Forecast

Advertisements
Track Severe Weather on mobile